地図

経路データ

SID SEASON NUMBER BASIN SUBBASIN NAME ISO_TIME NATURE LAT LON WMO_WIND WMO_PRES WMO_AGENCY TRACK_TYPE DIST2LAND LANDFALL IFLAG USA_AGENCY USA_ATCF_ID USA_LAT USA_LON USA_RECORD USA_STATUS USA_WIND USA_PRES USA_SSHS USA_R34_NE USA_R34_SE USA_R34_SW USA_R34_NW USA_R50_NE USA_R50_SE USA_R50_SW USA_R50_NW USA_R64_NE USA_R64_SE USA_R64_SW USA_R64_NW USA_POCI USA_ROCI USA_RMW USA_EYE TOKYO_LAT TOKYO_LON TOKYO_GRADE TOKYO_WIND TOKYO_PRES TOKYO_R50_DIR TOKYO_R50_LONG TOKYO_R50_SHORT TOKYO_R30_DIR TOKYO_R30_LONG TOKYO_R30_SHORT TOKYO_LAND CMA_LAT CMA_LON CMA_CAT CMA_WIND CMA_PRES HKO_LAT HKO_LON HKO_CAT HKO_WIND HKO_PRES NEWDELHI_LAT NEWDELHI_LON NEWDELHI_GRADE NEWDELHI_WIND NEWDELHI_PRES NEWDELHI_CI NEWDELHI_DP NEWDELHI_POCI REUNION_LAT REUNION_LON REUNION_TYPE REUNION_WIND REUNION_PRES REUNION_TNUM REUNION_CI REUNION_RMW REUNION_R34_NE REUNION_R34_SE REUNION_R34_SW REUNION_R34_NW REUNION_R50_NE REUNION_R50_SE REUNION_R50_SW REUNION_R50_NW REUNION_R64_NE REUNION_R64_SE REUNION_R64_SW REUNION_R64_NW BOM_LAT BOM_LON BOM_TYPE BOM_WIND BOM_PRES BOM_TNUM BOM_CI BOM_RMW BOM_R34_NE BOM_R34_SE BOM_R34_SW BOM_R34_NW BOM_R50_NE BOM_R50_SE BOM_R50_SW BOM_R50_NW BOM_R64_NE BOM_R64_SE BOM_R64_SW BOM_R64_NW BOM_ROCI BOM_POCI BOM_EYE BOM_POS_METHOD BOM_PRES_METHOD NADI_LAT NADI_LON NADI_CAT NADI_WIND NADI_PRES WELLINGTON_LAT WELLINGTON_LON WELLINGTON_WIND WELLINGTON_PRES DS824_LAT DS824_LON DS824_STAGE DS824_WIND DS824_PRES TD9636_LAT TD9636_LON TD9636_STAGE TD9636_WIND TD9636_PRES TD9635_LAT TD9635_LON TD9635_WIND TD9635_PRES TD9635_ROCI NEUMANN_LAT NEUMANN_LON NEUMANN_CLASS NEUMANN_WIND NEUMANN_PRES MLC_LAT MLC_LON MLC_CLASS MLC_WIND MLC_PRES USA_GUST BOM_GUST BOM_GUST_PER REUNION_GUST REUNION_GUST_PER USA_SEAHGT USA_SEARAD_NE USA_SEARAD_SE USA_SEARAD_SW USA_SEARAD_NW STORM_SPEED STORM_DIR
1925039S20069 1925 10 SI MM NOT_NAMED 1925-02-08 06:00:00 NR -19.8000 68.6000 main 1129 990 __________O___ -1 -19.8000 68.6000 7 27 252
1925039S20069 1925 10 SI MM NOT_NAMED 1925-02-08 09:00:00 NR -20.2179 67.2397 main 980 854 __________P___ -1 -20.2179 67.2397 7 26 252
1925039S20069 1925 10 SI MM NOT_NAMED 1925-02-08 12:00:00 NR -20.5935 65.9691 main 854 741 __________P___ -1 -20.5935 65.9691 7 23 253
1925039S20069 1925 10 SI MM NOT_NAMED 1925-02-08 15:00:00 NR -20.8967 64.8887 main 741 661 __________P___ -1 -20.8967 64.8887 7 18 254
1925039S20069 1925 10 SI MM NOT_NAMED 1925-02-08 18:00:00 NR -21.1000 64.1000 main 661 621 __________O___ -1 -21.1000 64.1000 7 12 256
1925039S20069 1925 10 SI MM NOT_NAMED 1925-02-08 21:00:00 NR -21.1915 63.6635 main 621 601 __________P___ -1 -21.1915 63.6635 7 6 259
1925039S20069 1925 10 SI MM NOT_NAMED 1925-02-09 00:00:00 NR -21.2167 63.4788 main 601 590 __________P___ -1 -21.2167 63.4788 7 2 260
1925039S20069 1925 10 SI MM NOT_NAMED 1925-02-09 03:00:00 NR -21.2337 63.4048 main 590 582 __________P___ -1 -21.2337 63.4048 7 2 243
1925039S20069 1925 10 SI MM NOT_NAMED 1925-02-09 06:00:00 NR -21.3000 63.3000 main 582 554 __________O___ -1 -21.3000 63.3000 7 5 243
1925039S20069 1925 10 SI MM NOT_NAMED 1925-02-09 09:00:00 NR -21.4523 62.9492 main 546 519 __________P___ -1 -21.4523 62.9492 7 8 243
1925039S20069 1925 10 SI MM NOT_NAMED 1925-02-09 12:00:00 NR -21.6656 62.5445 main 512 480 __________P___ -1 -21.6656 62.5445 7 9 237
1925039S20069 1925 10 SI MM NOT_NAMED 1925-02-09 15:00:00 NR -21.9460 62.1176 main 480 460 __________P___ -1 -21.9460 62.1176 7 10 231
1925039S20069 1925 10 SI MM NOT_NAMED 1925-02-09 18:00:00 NR -22.3000 61.7000 main 460 446 __________O___ -1 -22.3000 61.7000 7 11 223
1925039S20069 1925 10 SI MM NOT_NAMED 1925-02-09 21:00:00 NR -22.7729 61.2887 main 452 443 __________P___ -1 -22.7729 61.2887 7 13 216
1925039S20069 1925 10 SI MM NOT_NAMED 1925-02-10 00:00:00 NR -23.3078 60.8976 main 454 454 __________P___ -1 -23.3078 60.8976 7 13 212
1925039S20069 1925 10 SI MM NOT_NAMED 1925-02-10 03:00:00 NR -23.8387 60.5574 main 474 474 __________P___ -1 -23.8387 60.5574 7 11 209
1925039S20069 1925 10 SI MM NOT_NAMED 1925-02-10 06:00:00 NR -24.3000 60.3000 main 501 501 __________O___ -1 -24.3000 60.3000 7 9 207
1925039S20069 1925 10 SI MM NOT_NAMED 1925-02-10 09:00:00 NR -24.6156 60.1219 main 520 520 __________P___ -1 -24.6156 60.1219 7 6 203
1925039S20069 1925 10 SI MM NOT_NAMED 1925-02-10 12:00:00 NR -24.8542 60.0336 main 545 545 __________P___ -1 -24.8542 60.0336 7 4 191
1925039S20069 1925 10 SI MM NOT_NAMED 1925-02-10 15:00:00 NR -25.0407 60.0287 main 555 555 __________P___ -1 -25.0407 60.0287 7 4 172
1925039S20069 1925 10 SI MM NOT_NAMED 1925-02-10 18:00:00 NR -25.2000 60.1000 main 580 580 __________O___ -1 -25.2000 60.1000 7 4 151
1925039S20069 1925 10 SI MM NOT_NAMED 1925-02-10 21:00:00 NR -25.3717 60.2278 main 604 604 __________P___ -1 -25.3717 60.2278 7 4 138
1925039S20069 1925 10 SI MM NOT_NAMED 1925-02-11 00:00:00 NR -25.5227 60.4247 main 623 623 __________P___ -1 -25.5227 60.4247 7 5 127
1925039S20069 1925 10 SI MM NOT_NAMED 1925-02-11 03:00:00 NR -25.6623 60.6592 main 657 657 __________P___ -1 -25.6623 60.6592 7 5 123
1925039S20069 1925 10 SI MM NOT_NAMED 1925-02-11 06:00:00 NR -25.8000 60.9000 main 676 676 __________O___ -1 -25.8000 60.9000 7 5 127
1925039S20069 1925 10 SI MM NOT_NAMED 1925-02-11 09:00:00 NR -25.9539 61.0920 main 705 705 __________P___ -1 -25.9539 61.0920 7 5 132
1925039S20069 1925 10 SI MM NOT_NAMED 1925-02-11 12:00:00 NR -26.1073 61.2852 main 725 725 __________P___ -1 -26.1073 61.2852 7 5 131
1925039S20069 1925 10 SI MM NOT_NAMED 1925-02-11 15:00:00 NR -26.2570 61.4858 main 755 755 __________P___ -1 -26.2570 61.4858 7 5 128
1925039S20069 1925 10 SI MM NOT_NAMED 1925-02-11 18:00:00 NR -26.4000 61.7000 main 775 775 __________O___ -1 -26.4000 61.7000 7 5 125
1925039S20069 1925 10 SI MM NOT_NAMED 1925-02-11 21:00:00 NR -26.5340 61.9322 main 795 795 __________P___ -1 -26.5340 61.9322 7 5 121
1925039S20069 1925 10 SI MM NOT_NAMED 1925-02-12 00:00:00 NR -26.6605 62.1795 main 830 830 __________P___ -1 -26.6605 62.1795 7 5 119
1925039S20069 1925 10 SI MM NOT_NAMED 1925-02-12 03:00:00 NR -26.7817 62.4371 main 851 851 __________P___ -1 -26.7817 62.4371 7 5 117
1925039S20069 1925 10 SI MM NOT_NAMED 1925-02-12 06:00:00 NR -26.9000 62.7000 main 877 __________O___ -1 -26.9000 62.7000 7 5 117

IBTrACS Databaseについて

本データベースは、米国NOAAが公開する1842年以降の世界の熱帯低気圧のベストトラックデータアーカイブInternational Best Track Archive for Climate Stewardship (IBTrACS)を、ウェブで閲覧しやすい形式に変換したものです。

最終更新日:2021-11-26